sensor_id;sensor_type;location;lat;lon;timestamp;temperature;humidity
13336;DHT22;6737;51.480;11.962;2023-03-12T00:00:43;-0.60;99.90
13336;DHT22;6737;51.480;11.962;2023-03-12T00:03:09;-0.60;99.90
13336;DHT22;6737;51.480;11.962;2023-03-12T00:05:39;-0.60;99.90
13336;DHT22;6737;51.480;11.962;2023-03-12T00:08:06;-0.50;99.90
13336;DHT22;6737;51.480;11.962;2023-03-12T00:10:32;-0.50;99.90
13336;DHT22;6737;51.480;11.962;2023-03-12T00:12:57;-0.60;99.90
13336;DHT22;6737;51.480;11.962;2023-03-12T00:15:23;-0.60;99.90
13336;DHT22;6737;51.480;11.962;2023-03-12T00:17:49;-0.60;99.90
13336;DHT22;6737;51.480;11.962;2023-03-12T00:20:16;-0.50;99.90
13336;DHT22;6737;51.480;11.962;2023-03-12T00:22:42;-0.60;99.90
13336;DHT22;6737;51.480;11.962;2023-03-12T00:25:12;-0.60;99.90
13336;DHT22;6737;51.480;11.962;2023-03-12T00:27:39;-0.60;99.90
13336;DHT22;6737;51.480;11.962;2023-03-12T00:30:06;-0.60;99.90
13336;DHT22;6737;51.480;11.962;2023-03-12T00:32:32;-0.60;99.90
13336;DHT22;6737;51.480;11.962;2023-03-12T00:34:58;-0.60;99.90
13336;DHT22;6737;51.480;11.962;2023-03-12T00:37:24;-0.60;99.90
13336;DHT22;6737;51.480;11.962;2023-03-12T00:39:50;-0.60;99.90
13336;DHT22;6737;51.480;11.962;2023-03-12T00:42:17;-0.60;99.90
13336;DHT22;6737;51.480;11.962;2023-03-12T00:44:43;-0.60;99.90
13336;DHT22;6737;51.480;11.962;2023-03-12T00:47:10;-0.60;99.90
13336;DHT22;6737;51.480;11.962;2023-03-12T00:49:36;-0.60;99.90
13336;DHT22;6737;51.480;11.962;2023-03-12T00:52:01;-0.70;99.90
13336;DHT22;6737;51.480;11.962;2023-03-12T00:54:27;-0.70;99.90
13336;DHT22;6737;51.480;11.962;2023-03-12T00:56:53;-0.70;99.90
13336;DHT22;6737;51.480;11.962;2023-03-12T00:59:19;-0.70;99.90
13336;DHT22;6737;51.480;11.962;2023-03-12T01:01:44;-0.70;99.90
13336;DHT22;6737;51.480;11.962;2023-03-12T01:04:11;-0.70;99.90
13336;DHT22;6737;51.480;11.962;2023-03-12T01:06:37;-0.70;99.90
13336;DHT22;6737;51.480;11.962;2023-03-12T01:09:04;-0.70;99.90
13336;DHT22;6737;51.480;11.962;2023-03-12T01:11:31;-0.70;99.90
13336;DHT22;6737;51.480;11.962;2023-03-12T01:13:59;-0.80;99.90
13336;DHT22;6737;51.480;11.962;2023-03-12T01:16:26;-0.70;99.90
13336;DHT22;6737;51.480;11.962;2023-03-12T01:18:58;-0.80;99.90
13336;DHT22;6737;51.480;11.962;2023-03-12T01:21:25;-0.80;99.90
13336;DHT22;6737;51.480;11.962;2023-03-12T01:23:52;-0.80;99.90
13336;DHT22;6737;51.480;11.962;2023-03-12T01:26:18;-0.80;99.90
13336;DHT22;6737;51.480;11.962;2023-03-12T01:28:44;-0.80;99.90
13336;DHT22;6737;51.480;11.962;2023-03-12T01:31:13;-0.80;99.90
13336;DHT22;6737;51.480;11.962;2023-03-12T01:33:39;-0.80;99.90
13336;DHT22;6737;51.480;11.962;2023-03-12T01:36:18;-0.80;99.90
13336;DHT22;6737;51.480;11.962;2023-03-12T01:38:44;-0.80;99.90
13336;DHT22;6737;51.480;11.962;2023-03-12T01:41:10;-0.80;99.90
13336;DHT22;6737;51.480;11.962;2023-03-12T01:43:37;-0.90;99.90
13336;DHT22;6737;51.480;11.962;2023-03-12T01:46:36;-0.90;99.90
13336;DHT22;6737;51.480;11.962;2023-03-12T01:49:27;-0.90;99.90
13336;DHT22;6737;51.480;11.962;2023-03-12T01:52:10;-0.90;99.90
13336;DHT22;6737;51.480;11.962;2023-03-12T01:54:44;-0.90;99.90
13336;DHT22;6737;51.480;11.962;2023-03-12T01:57:14;-1.00;99.90
13336;DHT22;6737;51.480;11.962;2023-03-12T01:59:48;-0.90;99.90
13336;DHT22;6737;51.480;11.962;2023-03-12T02:02:15;-0.90;99.90
13336;DHT22;6737;51.480;11.962;2023-03-12T02:04:44;-0.90;99.90
13336;DHT22;6737;51.480;11.962;2023-03-12T02:07:15;-0.90;99.90
13336;DHT22;6737;51.480;11.962;2023-03-12T02:09:44;-0.90;99.90
13336;DHT22;6737;51.480;11.962;2023-03-12T02:12:11;-0.80;99.90
13336;DHT22;6737;51.480;11.962;2023-03-12T02:14:37;-0.80;99.90
13336;DHT22;6737;51.480;11.962;2023-03-12T02:17:04;-0.90;99.90
13336;DHT22;6737;51.480;11.962;2023-03-12T02:22:04;-0.90;99.90
13336;DHT22;6737;51.480;11.962;2023-03-12T02:27:09;-0.90;99.90
13336;DHT22;6737;51.480;11.962;2023-03-12T02:29:41;-0.90;99.90
13336;DHT22;6737;51.480;11.962;2023-03-12T02:32:08;-0.80;99.90
13336;DHT22;6737;51.480;11.962;2023-03-12T02:34:38;-0.80;99.90
13336;DHT22;6737;51.480;11.962;2023-03-12T02:37:03;-0.90;99.90
13336;DHT22;6737;51.480;11.962;2023-03-12T02:39:29;-0.90;99.90
13336;DHT22;6737;51.480;11.962;2023-03-12T02:41:56;-1.00;99.90
13336;DHT22;6737;51.480;11.962;2023-03-12T02:44:25;-1.00;99.90
13336;DHT22;6737;51.480;11.962;2023-03-12T02:46:55;-0.90;99.90
13336;DHT22;6737;51.480;11.962;2023-03-12T02:49:25;-1.00;99.90
13336;DHT22;6737;51.480;11.962;2023-03-12T02:51:52;-0.90;99.90
13336;DHT22;6737;51.480;11.962;2023-03-12T02:54:19;-1.00;99.90
13336;DHT22;6737;51.480;11.962;2023-03-12T02:56:45;-1.00;99.90
13336;DHT22;6737;51.480;11.962;2023-03-12T02:59:13;-1.00;99.90
13336;DHT22;6737;51.480;11.962;2023-03-12T03:01:39;-1.00;99.90
13336;DHT22;6737;51.480;11.962;2023-03-12T03:04:06;-1.00;99.90
13336;DHT22;6737;51.480;11.962;2023-03-12T03:06:34;-1.10;99.90
13336;DHT22;6737;51.480;11.962;2023-03-12T03:09:02;-1.10;99.90
13336;DHT22;6737;51.480;11.962;2023-03-12T03:11:28;-1.10;99.90
13336;DHT22;6737;51.480;11.962;2023-03-12T03:13:55;-1.00;99.90
13336;DHT22;6737;51.480;11.962;2023-03-12T03:16:21;-1.00;99.90
13336;DHT22;6737;51.480;11.962;2023-03-12T03:18:47;-1.00;99.90
13336;DHT22;6737;51.480;11.962;2023-03-12T03:21:14;-0.90;99.90
13336;DHT22;6737;51.480;11.962;2023-03-12T03:23:45;-1.00;99.90
13336;DHT22;6737;51.480;11.962;2023-03-12T03:26:11;-1.00;99.90
13336;DHT22;6737;51.480;11.962;2023-03-12T03:28:38;-1.00;99.90
13336;DHT22;6737;51.480;11.962;2023-03-12T03:31:05;-1.00;99.90
13336;DHT22;6737;51.480;11.962;2023-03-12T03:33:33;-1.00;99.90
13336;DHT22;6737;51.480;11.962;2023-03-12T03:36:00;-1.00;99.90
13336;DHT22;6737;51.480;11.962;2023-03-12T03:38:27;-1.00;99.90
13336;DHT22;6737;51.480;11.962;2023-03-12T03:40:53;-1.10;99.90
13336;DHT22;6737;51.480;11.962;2023-03-12T03:43:20;-1.10;99.90
13336;DHT22;6737;51.480;11.962;2023-03-12T03:45:47;-1.10;99.90
13336;DHT22;6737;51.480;11.962;2023-03-12T03:48:13;-1.10;99.90
13336;DHT22;6737;51.480;11.962;2023-03-12T03:50:40;-1.10;99.90
13336;DHT22;6737;51.480;11.962;2023-03-12T03:53:08;-1.20;99.90
13336;DHT22;6737;51.480;11.962;2023-03-12T03:55:38;-1.20;99.90
13336;DHT22;6737;51.480;11.962;2023-03-12T03:58:04;-1.30;99.90
13336;DHT22;6737;51.480;11.962;2023-03-12T04:00:30;-1.30;99.90
13336;DHT22;6737;51.480;11.962;2023-03-12T04:02:56;-1.30;99.90
13336;DHT22;6737;51.480;11.962;2023-03-12T04:05:22;-1.20;99.90
13336;DHT22;6737;51.480;11.962;2023-03-12T04:07:51;-1.20;99.90
13336;DHT22;6737;51.480;11.962;2023-03-12T04:10:20;-1.20;99.90
13336;DHT22;6737;51.480;11.962;2023-03-12T04:12:46;-1.20;99.90
13336;DHT22;6737;51.480;11.962;2023-03-12T04:15:12;-1.20;99.90
13336;DHT22;6737;51.480;11.962;2023-03-12T04:17:38;-1.30;99.90
13336;DHT22;6737;51.480;11.962;2023-03-12T04:20:04;-1.30;99.90
13336;DHT22;6737;51.480;11.962;2023-03-12T04:22:33;-1.30;99.90
13336;DHT22;6737;51.480;11.962;2023-03-12T04:24:58;-1.30;99.90
13336;DHT22;6737;51.480;11.962;2023-03-12T04:27:24;-1.30;99.90
13336;DHT22;6737;51.480;11.962;2023-03-12T04:29:50;-1.30;99.90
13336;DHT22;6737;51.480;11.962;2023-03-12T04:32:16;-1.40;99.90
13336;DHT22;6737;51.480;11.962;2023-03-12T04:34:42;-1.30;99.90
13336;DHT22;6737;51.480;11.962;2023-03-12T04:37:08;-1.30;99.90
13336;DHT22;6737;51.480;11.962;2023-03-12T04:39:36;-1.30;99.90
13336;DHT22;6737;51.480;11.962;2023-03-12T04:42:01;-1.30;99.90
13336;DHT22;6737;51.480;11.962;2023-03-12T04:44:27;-1.30;99.90
13336;DHT22;6737;51.480;11.962;2023-03-12T04:46:53;-1.30;99.90
13336;DHT22;6737;51.480;11.962;2023-03-12T04:49:18;-1.30;99.90
13336;DHT22;6737;51.480;11.962;2023-03-12T04:51:44;-1.30;99.90
13336;DHT22;6737;51.480;11.962;2023-03-12T04:54:10;-1.30;99.90
13336;DHT22;6737;51.480;11.962;2023-03-12T04:56:36;-1.30;99.90
13336;DHT22;6737;51.480;11.962;2023-03-12T04:59:02;-1.30;99.90
13336;DHT22;6737;51.480;11.962;2023-03-12T05:01:31;-1.30;99.90
13336;DHT22;6737;51.480;11.962;2023-03-12T05:03:57;-1.20;99.90
13336;DHT22;6737;51.480;11.962;2023-03-12T05:06:24;-1.30;99.90
13336;DHT22;6737;51.480;11.962;2023-03-12T05:08:51;-1.40;99.90
13336;DHT22;6737;51.480;11.962;2023-03-12T05:11:17;-1.40;99.90
13336;DHT22;6737;51.480;11.962;2023-03-12T05:13:43;-1.50;99.90
13336;DHT22;6737;51.480;11.962;2023-03-12T05:16:09;-1.50;99.90
13336;DHT22;6737;51.480;11.962;2023-03-12T05:18:36;-1.40;99.90
13336;DHT22;6737;51.480;11.962;2023-03-12T05:21:17;-1.40;99.90
13336;DHT22;6737;51.480;11.962;2023-03-12T05:23:43;-1.30;99.90
13336;DHT22;6737;51.480;11.962;2023-03-12T05:26:18;-1.30;99.90
13336;DHT22;6737;51.480;11.962;2023-03-12T05:28:44;-1.30;99.90
13336;DHT22;6737;51.480;11.962;2023-03-12T05:31:10;-1.40;99.90
13336;DHT22;6737;51.480;11.962;2023-03-12T05:33:37;-1.50;99.90
13336;DHT22;6737;51.480;11.962;2023-03-12T05:36:03;-1.50;99.90
13336;DHT22;6737;51.480;11.962;2023-03-12T05:38:29;-1.50;99.90
13336;DHT22;6737;51.480;11.962;2023-03-12T05:40:56;-1.40;99.90
13336;DHT22;6737;51.480;11.962;2023-03-12T05:43:24;-1.40;99.90
13336;DHT22;6737;51.480;11.962;2023-03-12T05:45:51;-1.40;99.90
13336;DHT22;6737;51.480;11.962;2023-03-12T05:48:17;-1.40;99.90
13336;DHT22;6737;51.480;11.962;2023-03-12T05:50:43;-1.40;99.90
13336;DHT22;6737;51.480;11.962;2023-03-12T05:53:09;-1.40;99.90
13336;DHT22;6737;51.480;11.962;2023-03-12T05:55:39;-1.50;99.90
13336;DHT22;6737;51.480;11.962;2023-03-12T05:58:06;-1.50;99.90
13336;DHT22;6737;51.480;11.962;2023-03-12T06:00:33;-1.50;99.90
13336;DHT22;6737;51.480;11.962;2023-03-12T06:03:04;-1.50;99.90
13336;DHT22;6737;51.480;11.962;2023-03-12T06:05:31;-1.50;99.90
13336;DHT22;6737;51.480;11.962;2023-03-12T06:07:58;-1.50;99.90
13336;DHT22;6737;51.480;11.962;2023-03-12T06:10:24;-1.50;99.90
13336;DHT22;6737;51.480;11.962;2023-03-12T06:12:50;-1.50;99.90
13336;DHT22;6737;51.480;11.962;2023-03-12T06:15:16;-1.50;99.90
13336;DHT22;6737;51.480;11.962;2023-03-12T06:17:41;-1.50;99.90
13336;DHT22;6737;51.480;11.962;2023-03-12T06:20:08;-1.50;99.90
13336;DHT22;6737;51.480;11.962;2023-03-12T06:22:34;-1.50;99.90
13336;DHT22;6737;51.480;11.962;2023-03-12T06:24:59;-1.40;99.90
13336;DHT22;6737;51.480;11.962;2023-03-12T06:27:25;-1.40;99.90
13336;DHT22;6737;51.480;11.962;2023-03-12T06:29:51;-1.30;99.90
13336;DHT22;6737;51.480;11.962;2023-03-12T06:32:17;-1.20;99.90
13336;DHT22;6737;51.480;11.962;2023-03-12T06:34:43;-1.20;99.90
13336;DHT22;6737;51.480;11.962;2023-03-12T06:37:09;-1.20;99.90
13336;DHT22;6737;51.480;11.962;2023-03-12T06:39:37;-1.10;99.90
13336;DHT22;6737;51.480;11.962;2023-03-12T06:42:03;-1.00;99.90
13336;DHT22;6737;51.480;11.962;2023-03-12T06:44:31;-1.00;99.90
13336;DHT22;6737;51.480;11.962;2023-03-12T06:46:57;-0.90;99.90
13336;DHT22;6737;51.480;11.962;2023-03-12T06:49:23;-0.90;99.90
13336;DHT22;6737;51.480;11.962;2023-03-12T06:51:49;-0.90;99.90
13336;DHT22;6737;51.480;11.962;2023-03-12T06:54:15;-0.80;99.90
13336;DHT22;6737;51.480;11.962;2023-03-12T06:56:41;-0.70;99.90
13336;DHT22;6737;51.480;11.962;2023-03-12T06:59:07;-0.60;99.90
13336;DHT22;6737;51.480;11.962;2023-03-12T07:01:33;-0.50;99.90
13336;DHT22;6737;51.480;11.962;2023-03-12T07:03:58;-0.40;99.90
13336;DHT22;6737;51.480;11.962;2023-03-12T07:06:24;-0.40;99.90
13336;DHT22;6737;51.480;11.962;2023-03-12T07:08:51;-0.20;99.90
13336;DHT22;6737;51.480;11.962;2023-03-12T07:11:17;-0.30;99.90
13336;DHT22;6737;51.480;11.962;2023-03-12T07:13:43;-0.30;99.90
13336;DHT22;6737;51.480;11.962;2023-03-12T07:16:10;-0.10;99.90
13336;DHT22;6737;51.480;11.962;2023-03-12T07:18:36;0.10;99.90
13336;DHT22;6737;51.480;11.962;2023-03-12T07:21:03;0.10;99.90
13336;DHT22;6737;51.480;11.962;2023-03-12T07:23:29;0.30;99.90
13336;DHT22;6737;51.480;11.962;2023-03-12T07:25:54;0.40;99.90
13336;DHT22;6737;51.480;11.962;2023-03-12T07:28:20;0.50;99.90
13336;DHT22;6737;51.480;11.962;2023-03-12T07:30:46;0.60;99.90
13336;DHT22;6737;51.480;11.962;2023-03-12T07:33:18;0.60;99.90
13336;DHT22;6737;51.480;11.962;2023-03-12T07:35:45;0.70;99.90
13336;DHT22;6737;51.480;11.962;2023-03-12T07:38:11;0.70;99.90
13336;DHT22;6737;51.480;11.962;2023-03-12T07:40:37;0.80;99.90
13336;DHT22;6737;51.480;11.962;2023-03-12T07:43:04;0.90;99.90
13336;DHT22;6737;51.480;11.962;2023-03-12T07:45:39;1.00;99.90
13336;DHT22;6737;51.480;11.962;2023-03-12T07:48:06;1.00;99.90
13336;DHT22;6737;51.480;11.962;2023-03-12T07:50:33;1.00;99.90
13336;DHT22;6737;51.480;11.962;2023-03-12T07:52:59;1.20;99.90
13336;DHT22;6737;51.480;11.962;2023-03-12T07:55:26;1.20;99.90
13336;DHT22;6737;51.480;11.962;2023-03-12T07:57:52;1.30;99.90
13336;DHT22;6737;51.480;11.962;2023-03-12T08:00:21;1.40;99.90
13336;DHT22;6737;51.480;11.962;2023-03-12T08:02:47;1.50;99.90
13336;DHT22;6737;51.480;11.962;2023-03-12T08:05:12;1.60;99.90
13336;DHT22;6737;51.480;11.962;2023-03-12T08:07:38;1.60;99.90
13336;DHT22;6737;51.480;11.962;2023-03-12T08:10:06;1.70;99.90
13336;DHT22;6737;51.480;11.962;2023-03-12T08:12:32;1.80;99.90
13336;DHT22;6737;51.480;11.962;2023-03-12T08:14:58;1.80;99.90
13336;DHT22;6737;51.480;11.962;2023-03-12T08:17:24;1.90;99.90
13336;DHT22;6737;51.480;11.962;2023-03-12T08:19:51;2.00;99.90
13336;DHT22;6737;51.480;11.962;2023-03-12T08:22:16;2.10;99.90
13336;DHT22;6737;51.480;11.962;2023-03-12T08:24:42;2.20;99.90
13336;DHT22;6737;51.480;11.962;2023-03-12T08:27:08;2.20;99.90
13336;DHT22;6737;51.480;11.962;2023-03-12T08:29:37;2.30;99.90
13336;DHT22;6737;51.480;11.962;2023-03-12T08:32:02;2.40;99.90
13336;DHT22;6737;51.480;11.962;2023-03-12T08:34:28;2.40;99.90
13336;DHT22;6737;51.480;11.962;2023-03-12T08:36:54;2.40;99.90
13336;DHT22;6737;51.480;11.962;2023-03-12T08:39:20;2.50;99.90
13336;DHT22;6737;51.480;11.962;2023-03-12T08:41:46;2.60;99.90
13336;DHT22;6737;51.480;11.962;2023-03-12T08:44:12;2.70;99.90
13336;DHT22;6737;51.480;11.962;2023-03-12T08:46:38;2.80;99.90
13336;DHT22;6737;51.480;11.962;2023-03-12T08:49:04;2.80;99.90
13336;DHT22;6737;51.480;11.962;2023-03-12T08:51:30;2.90;99.90
13336;DHT22;6737;51.480;11.962;2023-03-12T08:53:56;3.00;99.90
13336;DHT22;6737;51.480;11.962;2023-03-12T08:56:22;3.10;99.90
13336;DHT22;6737;51.480;11.962;2023-03-12T08:58:47;3.20;99.90
13336;DHT22;6737;51.480;11.962;2023-03-12T09:01:13;3.20;99.90
13336;DHT22;6737;51.480;11.962;2023-03-12T09:03:39;3.20;99.90
13336;DHT22;6737;51.480;11.962;2023-03-12T09:06:10;3.30;99.90
13336;DHT22;6737;51.480;11.962;2023-03-12T09:08:39;3.30;99.90
13336;DHT22;6737;51.480;11.962;2023-03-12T09:11:08;3.30;99.90
13336;DHT22;6737;51.480;11.962;2023-03-12T09:13:34;3.30;99.90
13336;DHT22;6737;51.480;11.962;2023-03-12T09:16:03;3.20;99.90
13336;DHT22;6737;51.480;11.962;2023-03-12T09:18:29;3.30;99.90
13336;DHT22;6737;51.480;11.962;2023-03-12T09:20:56;3.30;99.90
13336;DHT22;6737;51.480;11.962;2023-03-12T09:23:22;3.50;99.90
13336;DHT22;6737;51.480;11.962;2023-03-12T09:25:49;3.60;99.90
13336;DHT22;6737;51.480;11.962;2023-03-12T09:28:15;3.70;99.90
13336;DHT22;6737;51.480;11.962;2023-03-12T09:30:41;3.80;99.90
13336;DHT22;6737;51.480;11.962;2023-03-12T09:33:08;3.90;99.90
13336;DHT22;6737;51.480;11.962;2023-03-12T09:35:34;4.00;99.90
13336;DHT22;6737;51.480;11.962;2023-03-12T09:38:01;4.10;99.90
13336;DHT22;6737;51.480;11.962;2023-03-12T09:40:30;4.20;99.90
13336;DHT22;6737;51.480;11.962;2023-03-12T09:43:03;4.30;99.90
13336;DHT22;6737;51.480;11.962;2023-03-12T09:45:40;4.40;99.90
13336;DHT22;6737;51.480;11.962;2023-03-12T09:48:16;4.40;99.90
13336;DHT22;6737;51.480;11.962;2023-03-12T09:50:47;4.50;99.90
13336;DHT22;6737;51.480;11.962;2023-03-12T09:53:36;4.70;99.90
13336;DHT22;6737;51.480;11.962;2023-03-12T09:56:12;4.70;99.90
13336;DHT22;6737;51.480;11.962;2023-03-12T09:58:38;4.70;99.90
13336;DHT22;6737;51.480;11.962;2023-03-12T10:04:04;4.70;99.90
13336;DHT22;6737;51.480;11.962;2023-03-12T10:06:38;4.70;99.90
13336;DHT22;6737;51.480;11.962;2023-03-12T10:20:30;4.70;99.90
13336;DHT22;6737;51.480;11.962;2023-03-12T10:23:24;4.80;99.90
13336;DHT22;6737;51.480;11.962;2023-03-12T10:28:50;5.10;99.90
13336;DHT22;6737;51.480;11.962;2023-03-12T10:31:24;5.10;99.90
13336;DHT22;6737;51.480;11.962;2023-03-12T10:33:58;5.00;99.90
13336;DHT22;6737;51.480;11.962;2023-03-12T10:36:31;5.00;99.90
13336;DHT22;6737;51.480;11.962;2023-03-12T10:38:59;5.00;99.90
13336;DHT22;6737;51.480;11.962;2023-03-12T10:41:30;5.10;99.90
13336;DHT22;6737;51.480;11.962;2023-03-12T10:44:02;5.20;99.90
13336;DHT22;6737;51.480;11.962;2023-03-12T10:46:46;5.20;99.90
13336;DHT22;6737;51.480;11.962;2023-03-12T10:54:28;5.40;99.90
13336;DHT22;6737;51.480;11.962;2023-03-12T10:56:55;5.50;99.90
13336;DHT22;6737;51.480;11.962;2023-03-12T10:59:22;5.50;99.90
13336;DHT22;6737;51.480;11.962;2023-03-12T11:01:51;5.50;99.90
13336;DHT22;6737;51.480;11.962;2023-03-12T11:04:25;5.60;99.90
13336;DHT22;6737;51.480;11.962;2023-03-12T11:07:15;5.70;99.90
13336;DHT22;6737;51.480;11.962;2023-03-12T11:09:43;5.70;99.90
13336;DHT22;6737;51.480;11.962;2023-03-12T11:12:23;5.70;99.90
13336;DHT22;6737;51.480;11.962;2023-03-12T11:14:49;5.80;99.90
13336;DHT22;6737;51.480;11.962;2023-03-12T11:17:24;5.80;99.90
13336;DHT22;6737;51.480;11.962;2023-03-12T11:19:50;5.80;99.90
13336;DHT22;6737;51.480;11.962;2023-03-12T11:22:32;5.70;99.90
13336;DHT22;6737;51.480;11.962;2023-03-12T11:25:04;5.70;99.90
13336;DHT22;6737;51.480;11.962;2023-03-12T11:27:50;5.70;99.90
13336;DHT22;6737;51.480;11.962;2023-03-12T11:30:55;5.60;99.90
13336;DHT22;6737;51.480;11.962;2023-03-12T11:33:13;5.50;99.90
13336;DHT22;6737;51.480;11.962;2023-03-12T11:39:01;5.50;99.90
13336;DHT22;6737;51.480;11.962;2023-03-12T11:44:26;5.70;99.90
13336;DHT22;6737;51.480;11.962;2023-03-12T11:57:55;5.80;99.90
13336;DHT22;6737;51.480;11.962;2023-03-12T12:08:54;5.70;99.90
13336;DHT22;6737;51.480;11.962;2023-03-12T12:14:09;5.70;99.90
13336;DHT22;6737;51.480;11.962;2023-03-12T12:16:59;5.60;99.90
13336;DHT22;6737;51.480;11.962;2023-03-12T12:22:30;5.70;99.90
13336;DHT22;6737;51.480;11.962;2023-03-12T12:25:17;5.70;99.90
13336;DHT22;6737;51.480;11.962;2023-03-12T12:33:23;5.60;99.90
13336;DHT22;6737;51.480;11.962;2023-03-12T12:35:52;5.60;99.90
13336;DHT22;6737;51.480;11.962;2023-03-12T12:38:41;5.60;99.90
13336;DHT22;6737;51.480;11.962;2023-03-12T12:41:17;5.60;99.90
13336;DHT22;6737;51.480;11.962;2023-03-12T12:43:54;5.60;99.90
13336;DHT22;6737;51.480;11.962;2023-03-12T12:46:33;5.60;99.90
13336;DHT22;6737;51.480;11.962;2023-03-12T12:49:05;5.70;99.90
13336;DHT22;6737;51.480;11.962;2023-03-12T12:51:43;5.70;99.90
13336;DHT22;6737;51.480;11.962;2023-03-12T12:57:24;5.70;99.90
13336;DHT22;6737;51.480;11.962;2023-03-12T13:02:39;5.80;99.90
13336;DHT22;6737;51.480;11.962;2023-03-12T13:08:02;5.80;99.90
13336;DHT22;6737;51.480;11.962;2023-03-12T13:13:08;5.80;99.90
13336;DHT22;6737;51.480;11.962;2023-03-12T13:15:39;5.80;99.90
13336;DHT22;6737;51.480;11.962;2023-03-12T13:18:24;5.70;99.90
13336;DHT22;6737;51.480;11.962;2023-03-12T13:26:02;5.50;99.90
13336;DHT22;6737;51.480;11.962;2023-03-12T13:28:55;5.40;99.90
13336;DHT22;6737;51.480;11.962;2023-03-12T13:36:43;5.20;99.90
13336;DHT22;6737;51.480;11.962;2023-03-12T13:50:05;5.10;99.90
13336;DHT22;6737;51.480;11.962;2023-03-12T13:52:53;5.10;99.90
13336;DHT22;6737;51.480;11.962;2023-03-12T13:55:28;5.10;99.90
13336;DHT22;6737;51.480;11.962;2023-03-12T14:03:46;5.20;99.90
13336;DHT22;6737;51.480;11.962;2023-03-12T14:11:38;5.20;99.90
13336;DHT22;6737;51.480;11.962;2023-03-12T14:17:00;5.10;99.90
13336;DHT22;6737;51.480;11.962;2023-03-12T14:19:29;5.10;99.90
13336;DHT22;6737;51.480;11.962;2023-03-12T14:22:00;5.10;99.90
13336;DHT22;6737;51.480;11.962;2023-03-12T14:26:55;4.90;99.90
13336;DHT22;6737;51.480;11.962;2023-03-12T14:32:27;4.90;99.90
13336;DHT22;6737;51.480;11.962;2023-03-12T14:35:24;4.90;99.90
13336;DHT22;6737;51.480;11.962;2023-03-12T14:46:00;5.00;99.90
13336;DHT22;6737;51.480;11.962;2023-03-12T14:48:30;5.00;99.90
13336;DHT22;6737;51.480;11.962;2023-03-12T14:50:57;4.90;99.90
13336;DHT22;6737;51.480;11.962;2023-03-12T14:53:27;4.90;99.90
13336;DHT22;6737;51.480;11.962;2023-03-12T14:56:12;4.90;99.90
13336;DHT22;6737;51.480;11.962;2023-03-12T14:58:44;5.00;99.90
13336;DHT22;6737;51.480;11.962;2023-03-12T15:01:18;5.00;99.90
13336;DHT22;6737;51.480;11.962;2023-03-12T15:03:51;5.00;99.90
13336;DHT22;6737;51.480;11.962;2023-03-12T15:08:57;4.90;99.90
13336;DHT22;6737;51.480;11.962;2023-03-12T15:11:26;5.00;99.90
13336;DHT22;6737;51.480;11.962;2023-03-12T15:13:54;5.00;99.90
13336;DHT22;6737;51.480;11.962;2023-03-12T15:16:21;5.00;99.90
13336;DHT22;6737;51.480;11.962;2023-03-12T15:18:48;5.00;99.90
13336;DHT22;6737;51.480;11.962;2023-03-12T15:21:15;5.10;99.90
13336;DHT22;6737;51.480;11.962;2023-03-12T15:23:44;5.10;99.90
13336;DHT22;6737;51.480;11.962;2023-03-12T15:28:39;5.00;99.90
13336;DHT22;6737;51.480;11.962;2023-03-12T15:31:16;5.00;99.90
13336;DHT22;6737;51.480;11.962;2023-03-12T15:33:43;5.00;99.90
13336;DHT22;6737;51.480;11.962;2023-03-12T15:39:00;5.00;99.90
13336;DHT22;6737;51.480;11.962;2023-03-12T15:44:05;5.00;99.90
13336;DHT22;6737;51.480;11.962;2023-03-12T15:46:31;5.00;99.90
13336;DHT22;6737;51.480;11.962;2023-03-12T15:48:58;5.00;99.90
13336;DHT22;6737;51.480;11.962;2023-03-12T15:51:34;5.00;99.90
13336;DHT22;6737;51.480;11.962;2023-03-12T15:56:41;5.10;99.90
13336;DHT22;6737;51.480;11.962;2023-03-12T15:59:22;5.10;99.90
13336;DHT22;6737;51.480;11.962;2023-03-12T16:01:51;5.20;99.90
13336;DHT22;6737;51.480;11.962;2023-03-12T16:04:18;5.20;99.90
13336;DHT22;6737;51.480;11.962;2023-03-12T16:06:45;5.20;99.90
13336;DHT22;6737;51.480;11.962;2023-03-12T16:09:39;5.20;99.90
13336;DHT22;6737;51.480;11.962;2023-03-12T16:12:09;5.30;99.90
13336;DHT22;6737;51.480;11.962;2023-03-12T16:14:35;5.30;99.90
13336;DHT22;6737;51.480;11.962;2023-03-12T16:17:01;5.40;99.90
13336;DHT22;6737;51.480;11.962;2023-03-12T16:19:28;5.40;99.90
13336;DHT22;6737;51.480;11.962;2023-03-12T16:21:58;5.40;99.90
13336;DHT22;6737;51.480;11.962;2023-03-12T16:24:24;5.30;99.90
13336;DHT22;6737;51.480;11.962;2023-03-12T16:26:52;5.40;99.90
13336;DHT22;6737;51.480;11.962;2023-03-12T16:29:20;5.40;99.90
13336;DHT22;6737;51.480;11.962;2023-03-12T16:31:50;5.40;99.90
13336;DHT22;6737;51.480;11.962;2023-03-12T16:34:17;5.40;99.90
13336;DHT22;6737;51.480;11.962;2023-03-12T16:36:43;5.50;99.90
13336;DHT22;6737;51.480;11.962;2023-03-12T16:39:09;5.40;99.90
13336;DHT22;6737;51.480;11.962;2023-03-12T16:41:35;5.40;99.90
13336;DHT22;6737;51.480;11.962;2023-03-12T16:44:01;5.40;99.90
13336;DHT22;6737;51.480;11.962;2023-03-12T16:46:30;5.40;99.90
13336;DHT22;6737;51.480;11.962;2023-03-12T16:48:57;5.40;99.90
13336;DHT22;6737;51.480;11.962;2023-03-12T16:51:23;5.40;99.90
13336;DHT22;6737;51.480;11.962;2023-03-12T16:53:50;5.40;99.90
13336;DHT22;6737;51.480;11.962;2023-03-12T16:56:36;5.40;99.90
13336;DHT22;6737;51.480;11.962;2023-03-12T16:59:05;5.50;99.90
13336;DHT22;6737;51.480;11.962;2023-03-12T17:01:32;5.50;99.90
13336;DHT22;6737;51.480;11.962;2023-03-12T17:03:59;5.40;99.90
13336;DHT22;6737;51.480;11.962;2023-03-12T17:06:26;5.40;99.90
13336;DHT22;6737;51.480;11.962;2023-03-12T17:08:52;5.50;99.90
13336;DHT22;6737;51.480;11.962;2023-03-12T17:11:27;5.50;99.90
13336;DHT22;6737;51.480;11.962;2023-03-12T17:14:02;5.50;99.90
13336;DHT22;6737;51.480;11.962;2023-03-12T17:16:29;5.50;99.90
13336;DHT22;6737;51.480;11.962;2023-03-12T17:18:55;5.60;99.90
13336;DHT22;6737;51.480;11.962;2023-03-12T17:21:21;5.60;99.90
13336;DHT22;6737;51.480;11.962;2023-03-12T17:23:48;5.60;99.90
13336;DHT22;6737;51.480;11.962;2023-03-12T17:26:17;5.60;99.90
13336;DHT22;6737;51.480;11.962;2023-03-12T17:28:43;5.60;99.90
13336;DHT22;6737;51.480;11.962;2023-03-12T17:31:09;5.60;99.90
13336;DHT22;6737;51.480;11.962;2023-03-12T17:33:35;5.60;99.90
13336;DHT22;6737;51.480;11.962;2023-03-12T17:36:05;5.60;99.90
13336;DHT22;6737;51.480;11.962;2023-03-12T17:38:32;5.60;99.90
13336;DHT22;6737;51.480;11.962;2023-03-12T17:40:59;5.60;99.90
13336;DHT22;6737;51.480;11.962;2023-03-12T17:43:25;5.60;99.90
13336;DHT22;6737;51.480;11.962;2023-03-12T17:45:51;5.60;99.90
13336;DHT22;6737;51.480;11.962;2023-03-12T17:48:17;5.70;99.90
13336;DHT22;6737;51.480;11.962;2023-03-12T17:50:44;5.60;99.90
13336;DHT22;6737;51.480;11.962;2023-03-12T17:53:10;5.70;99.90
13336;DHT22;6737;51.480;11.962;2023-03-12T17:55:38;5.70;99.90
13336;DHT22;6737;51.480;11.962;2023-03-12T17:58:04;5.60;99.90
13336;DHT22;6737;51.480;11.962;2023-03-12T18:00:31;5.60;99.90
13336;DHT22;6737;51.480;11.962;2023-03-12T18:02:57;5.60;99.90
13336;DHT22;6737;51.480;11.962;2023-03-12T18:05:22;5.60;99.90
13336;DHT22;6737;51.480;11.962;2023-03-12T18:07:48;5.60;99.90